Time;durP1;ratioP1;P1;durP2;ratioP2;P2;SDS_P1;SDS_P2;PMS_P1;PMS_P2;Temp;Humidity;BMP_temperature;BMP_pressure;BME280_temperature;BME280_humidity;BME280_pressure;Samples;Min_cycle;Max_cycle;Signal;HPM_P1;HPM_P2
2022/12/24 00:01:26;;;;;;;9.90;4.33;;;12.60;99.90;;;;;;5019000;28;20230;-77
2022/12/24 00:03:51;;;;;;;9.43;3.33;;;12.60;99.90;;;;;;5018456;28;20199;-73
2022/12/24 00:06:21;;;;;;;13.10;4.30;;;12.60;99.90;;;;;;5018789;28;20177;-73
2022/12/24 00:08:46;;;;;;;9.77;3.20;;;12.50;99.90;;;;;;5016115;28;20183;-73
2022/12/24 00:11:12;;;;;;;9.70;3.03;;;12.50;99.90;;;;;;5018273;28;20261;-73
2022/12/24 00:13:38;;;;;;;14.73;3.97;;;12.60;99.90;;;;;;5017568;28;20225;-73
2022/12/24 00:16:05;;;;;;;12.07;3.60;;;12.60;99.90;;;;;;5017604;28;20181;-73
2022/12/24 00:18:31;;;;;;;8.97;3.00;;;12.60;99.90;;;;;;5014085;28;20195;-73
2022/12/24 00:20:57;;;;;;;10.27;3.07;;;12.60;99.90;;;;;;5019306;28;20218;-73
2022/12/24 00:23:23;;;;;;;10.87;3.77;;;12.50;99.90;;;;;;5027428;28;20191;-73
2022/12/24 00:25:49;;;;;;;10.60;3.23;;;12.50;99.90;;;;;;5027174;28;20202;-74
2022/12/24 00:28:16;;;;;;;12.43;3.73;;;12.50;99.90;;;;;;5022665;28;20825;-74
2022/12/24 00:30:42;;;;;;;13.27;4.63;;;12.50;99.90;;;;;;5019422;28;20202;-74
2022/12/24 00:33:09;;;;;;;12.23;3.17;;;12.50;99.90;;;;;;5023884;28;20187;-74
2022/12/24 00:35:39;;;;;;;7.60;2.20;;;12.50;99.90;;;;;;5019639;28;20692;-73
2022/12/24 00:38:06;;;;;;;9.70;3.27;;;12.50;99.90;;;;;;5005003;28;20233;-77
2022/12/24 00:40:33;;;;;;;10.47;2.93;;;12.50;99.90;;;;;;5025267;28;20217;-78
2022/12/24 00:43:00;;;;;;;10.37;2.60;;;12.50;99.90;;;;;;5021394;28;20633;-76
2022/12/24 00:45:29;;;;;;;11.17;2.90;;;12.50;99.90;;;;;;5025297;28;20701;-75
2022/12/24 00:48:02;;;;;;;7.83;2.33;;;12.60;99.90;;;;;;5020688;28;20202;-76
2022/12/24 00:50:29;;;;;;;6.23;2.17;;;12.60;99.90;;;;;;5019476;28;20204;-74
2022/12/24 00:52:58;;;;;;;8.17;2.73;;;12.60;99.90;;;;;;5022562;28;20184;-74
2022/12/24 00:55:25;;;;;;;9.80;3.07;;;12.60;99.90;;;;;;5018522;28;20270;-73
2022/12/24 00:57:52;;;;;;;32.03;10.87;;;12.50;99.90;;;;;;5017036;28;20221;-74
2022/12/24 01:00:18;;;;;;;26.53;8.53;;;12.50;99.90;;;;;;5018576;28;20274;-74
2022/12/24 01:02:47;;;;;;;14.40;6.33;;;12.50;99.90;;;;;;5031777;28;20587;-74
2022/12/24 01:05:19;;;;;;;10.77;4.40;;;12.50;99.90;;;;;;5016645;28;20713;-74
2022/12/24 01:07:47;;;;;;;7.20;3.17;;;12.40;99.90;;;;;;5019350;28;20223;-74
2022/12/24 01:10:16;;;;;;;7.53;3.00;;;12.40;99.90;;;;;;5022762;28;20191;-74
2022/12/24 01:12:44;;;;;;;9.03;2.77;;;12.40;99.90;;;;;;5019696;28;20186;-74
2022/12/24 01:15:12;;;;;;;10.63;2.80;;;12.30;99.90;;;;;;5022323;28;20677;-74
2022/12/24 01:17:41;;;;;;;7.87;2.70;;;12.30;99.90;;;;;;5020401;28;20229;-74
2022/12/24 01:20:15;;;;;;;9.47;2.67;;;12.30;99.90;;;;;;5021018;28;22141;-74
2022/12/24 01:22:42;;;;;;;10.87;3.37;;;12.30;99.90;;;;;;5012881;28;20220;-74
2022/12/24 01:25:09;;;;;;;8.83;2.70;;;12.30;99.90;;;;;;5022765;28;20738;-74
2022/12/24 01:27:35;;;;;;;11.17;3.20;;;12.20;99.90;;;;;;5020892;28;20189;-74
2022/12/24 01:30:07;;;;;;;16.20;3.90;;;12.20;99.90;;;;;;5015246;28;20237;-74
2022/12/24 01:32:34;;;;;;;9.00;2.53;;;12.20;99.90;;;;;;5016909;28;20234;-74
2022/12/24 01:35:00;;;;;;;6.30;2.27;;;12.20;99.90;;;;;;5015785;28;20213;-74
2022/12/24 01:37:27;;;;;;;11.77;2.77;;;12.20;99.90;;;;;;5022108;28;20713;-74
2022/12/24 01:43:22;;;;;;;16.60;4.40;;;12.20;99.90;;;;;;5022652;28;20214;-74
2022/12/24 01:45:47;;;;;;;14.20;3.60;;;12.20;99.90;;;;;;5014604;28;20842;-74
2022/12/24 01:48:37;;;;;;;10.00;3.30;;;12.30;99.90;;;;;;5015584;28;20201;-76
2022/12/24 01:51:29;;;;;;;13.27;4.10;;;12.20;99.90;;;;;;5020157;28;20239;-74
2022/12/24 01:54:10;;;;;;;9.47;2.30;;;12.10;99.90;;;;;;5019480;28;20202;-74
2022/12/24 01:56:43;;;;;;;11.90;2.90;;;12.10;99.90;;;;;;5012695;28;20176;-74
2022/12/24 01:59:13;;;;;;;11.00;2.67;;;12.10;99.90;;;;;;5019324;28;20186;-74
2022/12/24 02:01:40;;;;;;;8.37;2.33;;;12.10;99.90;;;;;;5018818;28;20204;-74
2022/12/24 02:04:14;;;;;;;9.00;2.30;;;12.10;99.90;;;;;;5013669;28;20325;-74
2022/12/24 02:06:41;;;;;;;10.53;2.63;;;12.10;99.90;;;;;;5018007;28;20183;-74
2022/12/24 02:09:10;;;;;;;15.57;4.13;;;12.10;99.90;;;;;;5016583;28;20743;-74
2022/12/24 02:11:43;;;;;;;10.63;3.10;;;12.00;99.90;;;;;;5015329;28;20195;-74
2022/12/24 02:14:11;;;;;;;12.20;3.40;;;12.00;99.90;;;;;;5016367;28;20183;-74
2022/12/24 02:17:01;;;;;;;12.63;2.83;;;12.00;99.90;;;;;;5050298;22;20191;-78
2022/12/24 02:19:51;;;;;;;10.37;2.47;;;12.00;99.90;;;;;;5006741;28;20192;-77
2022/12/24 02:22:39;;;;;;;9.33;2.60;;;11.90;99.90;;;;;;5005069;28;20225;-77
2022/12/24 02:25:20;;;;;;;9.97;2.30;;;11.90;99.90;;;;;;5010838;28;20438;-79
2022/12/24 02:28:01;;;;;;;8.63;2.40;;;11.90;99.90;;;;;;5010213;28;20213;-79
2022/12/24 02:30:46;;;;;;;7.90;2.27;;;11.90;99.90;;;;;;4994993;28;20268;-77
2022/12/24 02:33:49;;;;;;;11.83;2.63;;;12.00;99.90;;;;;;5004115;28;20183;-78
2022/12/24 02:36:35;;;;;;;11.00;2.47;;;12.00;99.90;;;;;;5002737;28;20387;-78
2022/12/24 02:39:05;;;;;;;7.90;2.37;;;12.00;99.90;;;;;;5001885;28;20204;-78
2022/12/24 02:44:47;;;;;;;20.13;6.27;;;12.00;99.90;;;;;;5029827;28;20257;-77
2022/12/24 02:47:15;;;;;;;14.83;3.87;;;12.10;99.90;;;;;;5003892;28;20265;-76
2022/12/24 02:49:44;;;;;;;9.67;3.90;;;12.10;99.90;;;;;;4999709;28;20188;-78
2022/12/24 02:52:33;;;;;;;9.43;2.93;;;12.10;99.90;;;;;;5010239;28;20191;-78
2022/12/24 02:55:03;;;;;;;10.00;2.80;;;12.10;99.90;;;;;;5002357;28;20184;-77
2022/12/24 02:57:41;;;;;;;8.40;2.30;;;12.00;99.90;;;;;;5006341;28;20207;-77
2022/12/24 03:00:11;;;;;;;7.63;2.53;;;12.00;99.90;;;;;;5007846;28;20184;-77
2022/12/24 03:02:48;;;;;;;11.43;3.33;;;12.10;99.90;;;;;;5003828;28;20195;-77
2022/12/24 03:05:23;;;;;;;9.33;2.67;;;12.10;99.90;;;;;;5003738;28;20172;-79
2022/12/24 03:08:01;;;;;;;9.50;2.43;;;12.00;99.90;;;;;;5004833;28;20245;-77
2022/12/24 03:10:37;;;;;;;6.83;2.10;;;12.00;99.90;;;;;;4999710;28;20187;-78
2022/12/24 03:13:11;;;;;;;11.77;2.30;;;12.00;99.90;;;;;;5023022;28;20187;-78
2022/12/24 03:15:38;;;;;;;7.73;2.17;;;12.00;99.90;;;;;;5017363;28;20181;-77
2022/12/24 03:18:06;;;;;;;9.07;2.27;;;12.00;99.90;;;;;;5012319;28;20219;-77
2022/12/24 03:20:39;;;;;;;8.60;2.07;;;12.00;99.90;;;;;;5012915;28;20270;-77
2022/12/24 03:23:05;;;;;;;7.87;1.90;;;12.00;99.90;;;;;;5008386;28;20565;-77
2022/12/24 03:25:33;;;;;;;12.17;2.43;;;12.00;99.90;;;;;;5006814;28;20784;-77
2022/12/24 03:28:02;;;;;;;9.00;2.30;;;12.00;99.90;;;;;;4996898;28;20236;-77
2022/12/24 03:30:28;;;;;;;7.67;2.17;;;12.00;99.90;;;;;;5007784;28;20219;-77
2022/12/24 03:32:54;;;;;;;7.40;2.30;;;12.00;99.90;;;;;;5001618;28;20626;-77
2022/12/24 03:35:20;;;;;;;7.33;1.93;;;12.00;99.90;;;;;;5018660;28;20178;-77
2022/12/24 03:37:46;;;;;;;9.67;2.27;;;12.00;99.90;;;;;;5011384;28;20202;-77
2022/12/24 03:40:12;;;;;;;8.30;2.17;;;12.00;99.90;;;;;;4988702;28;20222;-77
2022/12/24 03:42:37;;;;;;;6.70;2.10;;;12.00;99.90;;;;;;5008240;28;20570;-77
2022/12/24 03:45:04;;;;;;;7.03;1.97;;;12.00;99.90;;;;;;5007097;28;20172;-77
2022/12/24 03:47:30;;;;;;;7.43;2.10;;;12.00;99.90;;;;;;5009906;28;20230;-77
2022/12/24 03:49:56;;;;;;;10.80;2.40;;;12.00;99.90;;;;;;5009885;28;20558;-77
2022/12/24 03:52:22;;;;;;;8.57;2.40;;;12.00;99.90;;;;;;5008254;28;20258;-77
2022/12/24 03:54:48;;;;;;;9.77;2.13;;;12.00;99.90;;;;;;5007006;28;20187;-80
2022/12/24 03:57:13;;;;;;;9.23;2.47;;;12.00;99.90;;;;;;5000454;28;20342;-80
2022/12/24 03:59:39;;;;;;;10.97;2.40;;;12.00;99.90;;;;;;5006923;28;20246;-77
2022/12/24 04:02:05;;;;;;;8.10;2.10;;;12.00;99.90;;;;;;5013670;28;20188;-77
2022/12/24 04:04:32;;;;;;;10.20;2.33;;;12.10;99.90;;;;;;5006109;28;20184;-77
2022/12/24 04:06:58;;;;;;;10.40;2.33;;;12.10;99.90;;;;;;5011620;28;20192;-77
2022/12/24 04:09:24;;;;;;;6.13;2.10;;;12.10;99.90;;;;;;5006291;28;20176;-79
2022/12/24 04:11:50;;;;;;;8.70;2.30;;;12.00;99.90;;;;;;5008601;28;20246;-77
2022/12/24 04:14:15;;;;;;;9.10;2.60;;;12.00;99.90;;;;;;5004046;28;20323;-77
2022/12/24 04:16:41;;;;;;;8.27;2.30;;;12.00;99.90;;;;;;4995636;28;20191;-77
2022/12/24 04:19:07;;;;;;;8.30;2.20;;;12.00;99.90;;;;;;5001340;28;20202;-77
2022/12/24 04:21:33;;;;;;;12.27;2.73;;;12.00;99.90;;;;;;4995270;28;20241;-77
2022/12/24 04:23:59;;;;;;;11.23;2.20;;;12.00;99.90;;;;;;5002242;28;20307;-80
2022/12/24 04:26:25;;;;;;;9.00;2.20;;;11.90;99.90;;;;;;4999433;28;20786;-78
2022/12/24 04:28:50;;;;;;;10.47;2.57;;;11.90;99.90;;;;;;4998676;28;20814;-78
2022/12/24 04:31:17;;;;;;;7.93;2.27;;;11.90;99.90;;;;;;5003660;28;20317;-76
2022/12/24 04:33:43;;;;;;;10.13;2.67;;;11.90;99.90;;;;;;4986489;28;20183;-76
2022/12/24 04:36:13;;;;;;;8.07;2.27;;;11.90;99.90;;;;;;5017772;28;20261;-77
2022/12/24 04:38:39;;;;;;;9.87;2.50;;;11.90;99.90;;;;;;5001370;28;20191;-77
2022/12/24 04:41:11;;;;;;;10.63;2.73;;;11.90;99.90;;;;;;4992933;28;20775;-76
2022/12/24 04:43:37;;;;;;;7.83;2.07;;;11.90;99.90;;;;;;4987125;28;20816;-76
2022/12/24 04:46:05;;;;;;;10.17;2.90;;;11.90;99.90;;;;;;4998970;28;20266;-77
2022/12/24 04:48:31;;;;;;;9.40;2.63;;;11.90;99.90;;;;;;4995542;28;20195;-76
2022/12/24 04:50:59;;;;;;;7.70;2.27;;;11.80;99.90;;;;;;4986410;28;20184;-77
2022/12/24 04:53:25;;;;;;;10.73;2.30;;;11.80;99.90;;;;;;5005611;28;20191;-78
2022/12/24 04:55:50;;;;;;;8.10;2.30;;;11.80;99.90;;;;;;5003210;28;20233;-77
2022/12/24 04:58:16;;;;;;;12.97;2.60;;;11.80;99.90;;;;;;4998475;28;20223;-77
2022/12/24 05:00:42;;;;;;;11.80;2.70;;;11.80;99.90;;;;;;4998263;28;20188;-79
2022/12/24 05:03:08;;;;;;;7.83;2.33;;;11.80;99.90;;;;;;4998987;28;20215;-80
2022/12/24 05:05:34;;;;;;;8.93;2.53;;;11.80;99.90;;;;;;5008548;28;20179;-77
2022/12/24 05:07:59;;;;;;;10.47;2.70;;;11.80;99.90;;;;;;5001321;28;20823;-77
2022/12/24 05:10:25;;;;;;;9.60;2.83;;;11.80;99.90;;;;;;5007683;28;20175;-77
2022/12/24 05:12:51;;;;;;;11.70;2.77;;;11.80;99.90;;;;;;5009738;28;20253;-77
2022/12/24 05:15:16;;;;;;;8.93;2.50;;;11.80;99.90;;;;;;5007380;28;20667;-77
2022/12/24 05:17:42;;;;;;;13.30;2.73;;;11.80;99.90;;;;;;5001640;28;20216;-77
2022/12/24 05:20:08;;;;;;;12.20;2.80;;;11.80;99.90;;;;;;5006111;28;20188;-77
2022/12/24 05:28:03;;;;;;;9.87;2.67;;;11.80;99.90;;;;;;5008688;28;20207;-77
2022/12/24 05:30:28;;;;;;;10.00;2.90;;;11.80;99.90;;;;;;4971447;28;20195;-79
2022/12/24 05:32:54;;;;;;;8.57;2.50;;;11.80;99.90;;;;;;4998757;28;20653;-77
2022/12/24 05:35:20;;;;;;;11.87;3.03;;;11.70;99.90;;;;;;5007088;28;20321;-77
2022/12/24 05:37:46;;;;;;;9.60;2.90;;;11.70;99.90;;;;;;4994562;28;20195;-78
2022/12/24 05:40:11;;;;;;;9.97;2.73;;;11.70;99.90;;;;;;5013433;28;20296;-78
2022/12/24 05:42:37;;;;;;;10.77;2.47;;;11.70;99.90;;;;;;5025342;28;20233;-77
2022/12/24 05:45:03;;;;;;;10.40;2.83;;;11.60;99.90;;;;;;5002315;28;20175;-78
2022/12/24 05:47:29;;;;;;;11.33;2.70;;;11.60;99.90;;;;;;5009249;28;20289;-78
2022/12/24 05:49:55;;;;;;;9.03;2.50;;;11.60;99.90;;;;;;5000038;28;20215;-77
2022/12/24 05:52:20;;;;;;;10.47;2.73;;;11.50;99.90;;;;;;5001589;28;20210;-77
2022/12/24 05:54:47;;;;;;;8.53;2.53;;;11.50;99.90;;;;;;5006798;28;20175;-76
2022/12/24 05:57:12;;;;;;;9.87;2.80;;;11.50;99.90;;;;;;5004716;28;20201;-77
2022/12/24 05:59:38;;;;;;;14.77;3.20;;;11.50;99.90;;;;;;5004628;28;20182;-77
2022/12/24 06:02:04;;;;;;;9.40;2.93;;;11.50;99.90;;;;;;4995314;28;20184;-77
2022/12/24 06:04:30;;;;;;;15.57;3.43;;;11.50;99.90;;;;;;5016272;28;20609;-79
2022/12/24 06:06:55;;;;;;;12.33;3.13;;;11.50;99.90;;;;;;4994100;28;20186;-77
2022/12/24 06:09:21;;;;;;;12.50;3.23;;;11.50;99.90;;;;;;5021668;28;20171;-76
2022/12/24 06:11:47;;;;;;;11.50;3.20;;;11.50;99.90;;;;;;5001369;28;20445;-76
2022/12/24 06:14:13;;;;;;;14.33;3.27;;;11.40;99.90;;;;;;5014026;28;20290;-77
2022/12/24 06:16:41;;;;;;;13.90;3.37;;;11.50;99.90;;;;;;4999982;28;20191;-78
2022/12/24 06:19:06;;;;;;;13.17;3.33;;;11.50;99.90;;;;;;5003576;28;20602;-77
2022/12/24 06:21:32;;;;;;;13.70;3.17;;;11.40;99.90;;;;;;4998906;28;20180;-77
2022/12/24 06:23:58;;;;;;;12.33;3.60;;;11.40;99.90;;;;;;5020406;28;20210;-78
2022/12/24 06:26:23;;;;;;;14.00;3.30;;;11.40;99.90;;;;;;4999943;28;20206;-78
2022/12/24 06:28:50;;;;;;;14.37;3.40;;;11.40;99.90;;;;;;5016354;28;20217;-77
2022/12/24 06:31:19;;;;;;;10.87;3.37;;;11.30;99.90;;;;;;5000088;28;20186;-78
2022/12/24 06:33:45;;;;;;;12.77;3.07;;;11.30;99.90;;;;;;4994929;28;20679;-79
2022/12/24 06:36:15;;;;;;;12.50;3.00;;;11.30;99.90;;;;;;5010753;28;20208;-77
2022/12/24 06:38:41;;;;;;;13.50;3.77;;;11.30;99.90;;;;;;5005994;28;20277;-77
2022/12/24 06:41:08;;;;;;;11.93;3.13;;;11.30;99.90;;;;;;5007265;28;20233;-78
2022/12/24 06:43:34;;;;;;;13.23;3.47;;;11.30;99.90;;;;;;5006730;28;20299;-79
2022/12/24 06:46:02;;;;;;;19.67;3.67;;;11.20;99.90;;;;;;4993916;28;20262;-77
2022/12/24 06:48:28;;;;;;;14.57;3.72;;;11.20;99.90;;;;;;4986285;28;20437;-77
2022/12/24 06:50:53;;;;;;;12.67;3.60;;;11.20;99.90;;;;;;5003347;28;20172;-79
2022/12/24 06:53:19;;;;;;;20.33;3.70;;;11.30;99.90;;;;;;5003715;28;20288;-77
2022/12/24 06:55:45;;;;;;;12.83;3.47;;;11.30;99.90;;;;;;5002771;28;20187;-77
2022/12/24 06:58:11;;;;;;;17.23;3.97;;;11.40;99.90;;;;;;5019266;28;20205;-78
2022/12/24 07:00:37;;;;;;;18.03;4.17;;;11.40;99.90;;;;;;5003426;28;20270;-77
2022/12/24 07:03:03;;;;;;;14.83;3.87;;;11.40;99.90;;;;;;5004157;28;20877;-77
2022/12/24 07:05:29;;;;;;;15.37;4.03;;;11.40;99.90;;;;;;4987689;28;20175;-77
2022/12/24 07:07:55;;;;;;;14.93;3.90;;;;;;;;;;5001467;28;20207;-77
2022/12/24 07:10:21;;;;;;;15.10;3.90;;;11.40;99.90;;;;;;5007214;28;20215;-77
2022/12/24 07:12:47;;;;;;;15.67;4.27;;;11.40;99.90;;;;;;5008542;28;20188;-77
2022/12/24 07:15:14;;;;;;;15.83;3.83;;;11.40;99.90;;;;;;4992513;28;20190;-77
2022/12/24 07:17:40;;;;;;;17.93;4.20;;;11.50;99.90;;;;;;5002133;28;20211;-77
2022/12/24 07:20:09;;;;;;;15.90;3.60;;;11.50;99.90;;;;;;5007127;28;20184;-78
2022/12/24 07:22:34;;;;;;;12.97;4.23;;;11.50;99.90;;;;;;5006056;28;20870;-78
2022/12/24 07:25:01;;;;;;;12.87;3.87;;;11.50;99.90;;;;;;5001504;28;20214;-77
2022/12/24 07:27:26;;;;;;;18.77;4.30;;;11.50;99.90;;;;;;5002241;28;20198;-77
2022/12/24 07:29:52;;;;;;;16.53;4.03;;;11.50;99.90;;;;;;5006232;28;20522;-79
2022/12/24 07:32:19;;;;;;;14.73;4.03;;;11.50;99.90;;;;;;5000839;28;20184;-77
2022/12/24 07:34:45;;;;;;;12.50;4.07;;;11.50;99.90;;;;;;4981791;28;20226;-77
2022/12/24 07:37:11;;;;;;;13.80;4.10;;;11.50;99.90;;;;;;4996000;28;20257;-78
2022/12/24 07:39:37;;;;;;;17.97;4.10;;;11.50;99.90;;;;;;4987617;28;20176;-78
2022/12/24 07:42:05;;;;;;;15.57;4.20;;;11.50;99.90;;;;;;5003444;28;20195;-74
2022/12/24 07:44:31;;;;;;;16.77;4.30;;;11.50;99.90;;;;;;5018954;28;20180;-74
2022/12/24 07:46:56;;;;;;;12.83;4.20;;;11.50;99.90;;;;;;4997334;28;20182;-75
2022/12/24 07:49:22;;;;;;;19.00;4.57;;;11.50;99.90;;;;;;5011549;28;20190;-77
2022/12/24 07:51:48;;;;;;;18.17;4.37;;;11.50;99.90;;;;;;5008712;28;20187;-74
2022/12/24 07:54:14;;;;;;;19.90;4.33;;;11.50;99.90;;;;;;5005978;28;20202;-75
2022/12/24 07:56:40;;;;;;;20.50;4.37;;;11.50;99.90;;;;;;4998926;28;20676;-76
2022/12/24 07:59:09;;;;;;;15.13;4.37;;;11.50;99.90;;;;;;5000233;28;20195;-74
2022/12/24 08:01:35;;;;;;;18.20;4.80;;;11.50;99.90;;;;;;5003927;28;20654;-76
2022/12/24 08:04:01;;;;;;;15.83;4.37;;;11.50;99.90;;;;;;5000161;28;20203;-75
2022/12/24 08:06:27;;;;;;;14.47;4.30;;;11.50;99.90;;;;;;5002957;28;20190;-74
2022/12/24 08:08:52;;;;;;;16.93;4.20;;;11.50;99.90;;;;;;4986163;28;20230;-74
2022/12/24 08:11:18;;;;;;;15.00;4.70;;;11.50;99.90;;;;;;5002564;28;21142;-76
2022/12/24 08:13:44;;;;;;;15.50;5.13;;;11.50;99.90;;;;;;4999719;28;20191;-74
2022/12/24 08:16:10;;;;;;;14.87;4.73;;;11.50;99.90;;;;;;5004061;28;20179;-74
2022/12/24 08:18:36;;;;;;;15.93;4.43;;;11.60;99.90;;;;;;5006183;28;20243;-75
2022/12/24 08:21:02;;;;;;;21.17;4.53;;;11.60;99.90;;;;;;5003629;28;20233;-74
2022/12/24 08:23:28;;;;;;;16.87;4.23;;;11.60;99.90;;;;;;4986301;28;20653;-74
2022/12/24 08:25:53;;;;;;;14.00;4.10;;;11.60;99.90;;;;;;5005911;28;20179;-74
2022/12/24 08:28:20;;;;;;;16.47;3.87;;;11.60;99.90;;;;;;5003394;28;20199;-73
2022/12/24 08:30:48;;;;;;;17.70;4.17;;;11.60;99.90;;;;;;5000902;28;20179;-74
2022/12/24 08:33:14;;;;;;;18.93;3.63;;;11.70;99.90;;;;;;5006154;28;20180;-74
2022/12/24 08:35:40;;;;;;;17.73;4.37;;;11.70;99.90;;;;;;5005049;28;20172;-74
2022/12/24 08:38:05;;;;;;;16.83;4.00;;;11.70;99.90;;;;;;4999286;28;20250;-73
2022/12/24 08:40:31;;;;;;;14.50;4.20;;;11.70;99.90;;;;;;5006474;28;20193;-74
2022/12/24 08:42:57;;;;;;;14.10;3.73;;;11.70;99.90;;;;;;5006287;28;20203;-74
2022/12/24 08:45:23;;;;;;;17.83;5.07;;;11.80;99.90;;;;;;5007043;28;20225;-74
2022/12/24 08:47:48;;;;;;;19.30;4.77;;;11.80;99.90;;;;;;5003566;28;20210;-74
2022/12/24 08:50:14;;;;;;;19.00;4.87;;;11.80;99.90;;;;;;5008988;28;20179;-74
2022/12/24 08:52:40;;;;;;;18.27;4.63;;;11.80;99.90;;;;;;5007039;28;20219;-74
2022/12/24 08:55:06;;;;;;;15.30;3.87;;;11.80;99.90;;;;;;5006620;28;20226;-75
2022/12/24 08:57:35;;;;;;;19.10;4.00;;;11.90;99.90;;;;;;5007754;28;20219;-74
2022/12/24 09:00:03;;;;;;;22.53;4.90;;;11.90;99.90;;;;;;5008384;28;20210;-74
2022/12/24 09:02:29;;;;;;;15.30;3.90;;;12.00;99.90;;;;;;5006971;28;20266;-74
2022/12/24 09:04:55;;;;;;;19.27;4.97;;;12.00;99.90;;;;;;5006887;28;20187;-73
2022/12/24 09:07:21;;;;;;;16.90;4.23;;;12.10;99.90;;;;;;5006240;28;20262;-73
2022/12/24 09:09:47;;;;;;;19.77;4.17;;;12.20;99.90;;;;;;5010159;28;20702;-73
2022/12/24 09:12:12;;;;;;;15.97;4.20;;;12.30;99.90;;;;;;5005984;28;20569;-73
2022/12/24 09:14:38;;;;;;;17.43;4.10;;;12.40;99.90;;;;;;5007832;28;20582;-74
2022/12/24 09:17:04;;;;;;;13.87;3.63;;;12.40;99.90;;;;;;5000584;28;21499;-73
2022/12/24 09:19:32;;;;;;;15.60;3.63;;;12.50;99.90;;;;;;5007085;28;20187;-73
2022/12/24 09:21:58;;;;;;;20.37;4.23;;;12.50;99.90;;;;;;5000932;28;20245;-74
2022/12/24 09:24:24;;;;;;;15.07;4.20;;;12.60;99.90;;;;;;5004875;28;20220;-73
2022/12/24 09:26:49;;;;;;;18.10;3.60;;;12.70;99.90;;;;;;5006567;28;20226;-73
2022/12/24 09:29:15;;;;;;;15.13;3.90;;;12.80;99.90;;;;;;5009868;28;20184;-73
2022/12/24 09:31:41;;;;;;;16.50;4.60;;;12.80;99.90;;;;;;5007920;28;20211;-73
2022/12/24 09:34:07;;;;;;;17.43;3.83;;;12.90;99.90;;;;;;5007762;28;20184;-74
2022/12/24 09:36:34;;;;;;;20.27;4.47;;;12.90;99.90;;;;;;4985497;28;20671;-74
2022/12/24 09:39:00;;;;;;;17.93;4.03;;;13.00;99.90;;;;;;5009488;28;20255;-74
2022/12/24 09:41:42;;;;;;;16.27;4.27;;;13.00;99.90;;;;;;5004540;28;20548;-74
2022/12/24 09:44:44;;;;;;;16.43;4.07;;;13.00;99.90;;;;;;5010233;28;20200;-74
2022/12/24 09:47:42;;;;;;;14.40;4.13;;;13.00;99.90;;;;;;5007193;28;20211;-73
2022/12/24 09:50:48;;;;;;;16.17;3.87;;;13.00;99.90;;;;;;5001068;28;21135;-74
2022/12/24 09:53:29;;;;;;;17.50;6.93;;;12.90;99.90;;;;;;5005413;28;20638;-75
2022/12/24 09:55:58;;;;;;;18.23;4.67;;;13.00;99.90;;;;;;4989865;28;20278;-74
2022/12/24 09:58:40;;;;;;;17.60;4.77;;;13.00;99.90;;;;;;5005068;28;20617;-75
2022/12/24 10:01:09;;;;;;;17.93;4.60;;;13.00;99.90;;;;;;5005707;28;20185;-73
2022/12/24 10:03:35;;;;;;;17.33;4.63;;;13.10;99.90;;;;;;5001723;28;20239;-74
2022/12/24 10:06:15;;;;;;;16.37;4.37;;;13.10;99.90;;;;;;5006344;28;20227;-75
2022/12/24 10:09:00;;;;;;;20.50;5.30;;;13.00;99.90;;;;;;5004943;28;20222;-74
2022/12/24 10:11:35;;;;;;;15.47;4.47;;;13.00;99.90;;;;;;5007954;28;20184;-74
2022/12/24 10:14:13;;;;;;;16.13;4.23;;;13.00;99.90;;;;;;5002036;28;20191;-75
2022/12/24 10:16:53;;;;;;;15.17;4.53;;;13.10;99.90;;;;;;5004780;28;20198;-75
2022/12/24 10:19:44;;;;;;;16.27;4.37;;;13.20;99.90;;;;;;5002465;28;20272;-72
2022/12/24 10:22:37;;;;;;;17.23;4.27;;;13.20;99.90;;;;;;5003845;28;20211;-75
2022/12/24 10:25:18;;;;;;;20.23;4.20;;;13.30;99.90;;;;;;5006837;28;20187;-75
2022/12/24 10:27:45;;;;;;;14.73;4.13;;;13.20;99.90;;;;;;5003661;28;20343;-74
2022/12/24 10:30:17;;;;;;;20.10;4.70;;;13.20;99.90;;;;;;5007796;28;20965;-73
2022/12/24 10:32:46;;;;;;;21.80;4.30;;;13.20;99.90;;;;;;5004688;28;20183;-77
2022/12/24 10:35:22;;;;;;;18.03;4.30;;;13.20;99.90;;;;;;5022117;28;20177;-73
2022/12/24 10:37:50;;;;;;;14.47;3.90;;;13.20;99.90;;;;;;5000855;28;20208;-74
2022/12/24 10:40:23;;;;;;;13.37;4.07;;;13.30;99.90;;;;;;5010269;28;20270;-74
2022/12/24 10:42:49;;;;;;;15.60;4.20;;;13.30;99.90;;;;;;5007538;28;20204;-73
2022/12/24 10:45:22;;;;;;;18.57;4.37;;;13.40;99.90;;;;;;5003495;28;20179;-73
2022/12/24 10:47:53;;;;;;;16.67;4.27;;;13.40;99.90;;;;;;5005876;28;20202;-75
2022/12/24 10:50:25;;;;;;;15.13;4.10;;;13.40;99.90;;;;;;5004478;28;20567;-74
2022/12/24 10:52:57;;;;;;;14.57;3.63;;;13.40;99.90;;;;;;5007878;28;20254;-73
2022/12/24 10:55:23;;;;;;;16.30;4.07;;;13.50;99.90;;;;;;5006946;28;20836;-73
2022/12/24 10:58:04;;;;;;;14.67;4.30;;;13.60;99.90;;;;;;5009042;28;20196;-76
2022/12/24 11:00:31;;;;;;;13.67;3.73;;;13.80;99.90;;;;;;4997426;28;20666;-74
2022/12/24 11:03:06;;;;;;;17.23;3.97;;;13.90;99.90;;;;;;5006631;28;20225;-73
2022/12/24 11:05:34;;;;;;;17.30;3.93;;;14.00;99.90;;;;;;5015686;28;20209;-73
2022/12/24 11:08:01;;;;;;;16.70;4.60;;;14.10;99.90;;;;;;5023641;28;20227;-75
2022/12/24 11:10:27;;;;;;;16.07;4.87;;;14.20;99.90;;;;;;4999885;28;20258;-74
2022/12/24 11:12:53;;;;;;;16.83;4.40;;;14.20;99.90;;;;;;5003488;28;20662;-74
2022/12/24 11:15:26;;;;;;;17.40;4.47;;;14.30;99.90;;;;;;5018920;28;20588;-75
2022/12/24 11:18:03;;;;;;;17.43;4.60;;;14.30;99.90;;;;;;4996546;28;20219;-75
2022/12/24 11:20:31;;;;;;;18.20;5.10;;;14.30;99.90;;;;;;5002307;28;20548;-73
2022/12/24 11:22:57;;;;;;;15.10;3.73;;;14.30;99.90;;;;;;4986164;28;20302;-72
2022/12/24 11:25:30;;;;;;;13.77;5.60;;;14.30;99.90;;;;;;5005134;28;20268;-72
2022/12/24 11:28:10;;;;;;;13.57;4.07;;;14.30;99.90;;;;;;4990188;28;20240;-71
2022/12/24 11:30:37;;;;;;;15.33;3.63;;;14.30;99.90;;;;;;5006844;28;20195;-75
2022/12/24 11:33:03;;;;;;;16.13;3.60;;;14.20;99.90;;;;;;5006098;28;20269;-72
2022/12/24 11:35:32;;;;;;;13.73;4.00;;;14.20;99.90;;;;;;5009244;28;20314;-72
2022/12/24 11:38:00;;;;;;;16.33;3.73;;;14.10;99.90;;;;;;5004967;28;20257;-73
2022/12/24 11:40:39;;;;;;;15.63;3.30;;;14.00;99.90;;;;;;5009755;28;20181;-74
2022/12/24 11:43:12;;;;;;;11.67;3.23;;;14.00;99.90;;;;;;5002768;28;20204;-74
2022/12/24 11:45:38;;;;;;;15.70;3.77;;;13.90;99.90;;;;;;4998429;28;20650;-75
2022/12/24 11:48:25;;;;;;;16.50;3.57;;;13.90;99.90;;;;;;4997151;28;20224;-74
2022/12/24 11:50:59;;;;;;;13.63;3.30;;;13.90;99.90;;;;;;4999012;28;20182;-74
2022/12/24 11:53:47;;;;;;;14.47;3.70;;;13.90;99.90;;;;;;5004759;28;20186;-75
2022/12/24 11:56:51;;;;;;;14.10;3.10;;;13.90;99.90;;;;;;5003549;28;20180;-78
2022/12/24 11:59:33;;;;;;;12.23;3.60;;;13.90;99.90;;;;;;5001444;28;20193;-75
2022/12/24 12:02:19;;;;;;;12.43;3.47;;;13.90;99.90;;;;;;4999666;28;20211;-71
2022/12/24 12:04:54;;;;;;;14.80;3.80;;;13.90;99.90;;;;;;5002241;28;20185;-75
2022/12/24 12:07:30;;;;;;;15.87;3.67;;;13.90;99.90;;;;;;5005700;28;20750;-72
2022/12/24 12:10:36;;;;;;;13.67;3.00;;;13.80;99.90;;;;;;4995222;28;20670;-71
2022/12/24 12:13:09;;;;;;;13.97;3.33;;;13.80;99.90;;;;;;5003901;28;20286;-71
2022/12/24 12:15:47;;;;;;;12.37;3.37;;;13.80;99.90;;;;;;5008280;28;20706;-71
2022/12/24 12:18:22;;;;;;;9.13;3.30;;;13.90;99.90;;;;;;5005260;28;20947;-71
2022/12/24 12:20:54;;;;;;;11.60;3.30;;;13.90;99.90;;;;;;5007714;28;20191;-73
2022/12/24 12:23:42;;;;;;;13.93;3.73;;;14.00;99.90;;;;;;5008679;28;20239;-71
2022/12/24 12:26:25;;;;;;;13.37;3.80;;;14.00;99.90;;;;;;5006445;28;20190;-71
2022/12/24 12:28:56;;;;;;;13.00;3.43;;;14.00;99.90;;;;;;5007378;28;20200;-72
2022/12/24 12:31:33;;;;;;;17.73;3.87;;;13.90;99.90;;;;;;5006093;28;20550;-71
2022/12/24 12:34:20;;;;;;;13.37;3.67;;;13.80;99.90;;;;;;5007352;28;20175;-71
2022/12/24 12:36:54;;;;;;;16.23;3.80;;;13.80;99.90;;;;;;5006016;28;20187;-71
2022/12/24 12:39:20;;;;;;;16.43;3.77;;;13.80;99.90;;;;;;5008259;28;20575;-71
2022/12/24 12:41:50;;;;;;;16.23;3.53;;;13.80;99.90;;;;;;5007503;28;20175;-72
2022/12/24 12:44:29;;;;;;;13.30;3.30;;;13.70;99.90;;;;;;5007282;28;20195;-72
2022/12/24 12:46:58;;;;;;;11.90;3.47;;;13.70;99.90;;;;;;5007108;28;20215;-72
2022/12/24 12:49:32;;;;;;;10.93;3.33;;;13.70;99.90;;;;;;5007488;28;20270;-70
2022/12/24 12:52:39;;;;;;;14.43;3.90;;;13.70;99.90;;;;;;5001379;28;20190;-71
2022/12/24 12:55:38;;;;;;;10.00;3.23;;;13.60;99.90;;;;;;4988406;28;20187;-71
2022/12/24 12:58:16;;;;;;;11.77;3.50;;;13.60;99.90;;;;;;5008952;28;20207;-75
2022/12/24 13:00:44;;;;;;;14.50;3.93;;;13.60;99.90;;;;;;5007147;28;20183;-72
2022/12/24 13:03:42;;;;;;;14.30;4.03;;;13.50;99.90;;;;;;5008052;28;20899;-72
2022/12/24 13:06:35;;;;;;;15.17;4.10;;;13.50;99.90;;;;;;5020347;28;20176;-74
2022/12/24 13:09:11;;;;;;;18.33;4.10;;;13.50;99.90;;;;;;5022252;28;20199;-73